Time;durP1;ratioP1;P1;durP2;ratioP2;P2;SDS_P1;SDS_P2;PMS_P1;PMS_P2;Temp;Humidity;BMP_temperature;BMP_pressure;BME280_temperature;BME280_humidity;BME280_pressure;Samples;Min_cycle;Max_cycle;Signal;HPM_P1;HPM_P2
2019/06/21 00:00:48;;;;;;;1.8;1;;;;;;;30.21;35.66797;1003.066;;;;
2019/06/21 00:03:10;;;;;;;1.3;1;;;;;;;30.2;35.69238;1003.104;;;;
2019/06/21 00:05:37;;;;;;;1.1;0.9;;;;;;;30.2;35.7041;1003.116;;;;
2019/06/21 00:08:00;;;;;;;3.1;1;;;;;;;30.2;35.7168;1003.121;;;;
2019/06/21 00:10:25;;;;;;;1.4;0.8;;;;;;;30.2;35.72852;1003.119;;;;
2019/06/21 00:12:51;;;;;;;1.8;1;;;;;;;30.2;35.7168;1003.106;;;;
2019/06/21 00:12:54;;;;;;;1.7;1;;;;;;;30.2;35.7168;1003.095;;;;
2019/06/21 00:15:19;;;;;;;3.4;0.9;;;;;;;30.24;35.6582;1003.126;;;;
2019/06/21 00:17:45;;;;;;;1.7;0.9;;;;;;;30.24;35.66992;1003.098;;;;
2019/06/21 00:20:10;;;;;;;2.8;1;;;;;;;30.23;35.69434;1003.116;;;;
2019/06/21 00:20:34;;;;;;;1.4;1.1;;;;;;;30.23;35.69434;1003.074;;;;
2019/06/21 00:23:00;;;;;;;1.9;1;;;;;;;30.26;35.62305;1003.107;;;;
2019/06/21 00:25:26;;;;;;;1;0.9;;;;;;;30.25;35.63379;1003.123;;;;
2019/06/21 00:27:51;;;;;;;1.4;0.9;;;;;;;30.24;35.69434;1003.148;;;;
2019/06/21 00:30:17;;;;;;;1.7;0.9;;;;;;;30.23;35.70605;1003.161;;;;
2019/06/21 00:32:42;;;;;;;0.9;0.8;;;;;;;30.22;35.74121;1003.177;;;;
2019/06/21 00:35:07;;;;;;;1.1;1;;;;;;;30.21;35.7666;1003.209;;;;
2019/06/21 00:37:33;;;;;;;1.7;1;;;;;;;30.2;35.77734;1003.258;;;;
2019/06/21 00:39:58;;;;;;;1.8;0.8;;;;;;;30.18;35.81348;1003.25;;;;
2019/06/21 00:42:24;;;;;;;1.8;1;;;;;;;30.18;35.82422;1003.229;;;;
2019/06/21 00:44:49;;;;;;;1.1;0.8;;;;;;;30.18;35.82422;1003.201;;;;
2019/06/21 00:47:14;;;;;;;2.5;1;;;;;;;30.17;35.83594;1003.175;;;;
2019/06/21 00:49:39;;;;;;;1.8;1;;;;;;;30.17;35.86035;1003.179;;;;
2019/06/21 00:52:05;;;;;;;1.6;0.9;;;;;;;30.16;35.88477;1003.166;;;;
2019/06/21 00:54:30;;;;;;;2.7;0.9;;;;;;;30.16;35.87207;1003.158;;;;
2019/06/21 00:56:56;;;;;;;1.5;1;;;;;;;30.16;35.86035;1003.176;;;;
2019/06/21 00:59:21;;;;;;;1.9;1;;;;;;;30.16;35.87207;1003.178;;;;
2019/06/21 00:59:59;;;;;;;2.3;1.1;;;;;;;30.15;35.88379;1003.172;;;;
2019/06/21 01:02:24;;;;;;;1.4;0.9;;;;;;;30.17;35.84961;1003.166;;;;
2019/06/21 01:04:50;;;;;;;1.1;1;;;;;;;30.17;35.84863;1003.169;;;;
2019/06/21 01:07:15;;;;;;;1;0.7;;;;;;;30.16;35.89648;1003.132;;;;
2019/06/21 01:09:41;;;;;;;1.9;1.1;;;;;;;30.14;35.90723;1003.181;;;;
2019/06/21 01:13:00;;;;;;;1.9;1.1;;;;;;;30.2;35.82617;1003.229;;;;
2019/06/21 01:15:25;;;;;;;1;0.9;;;;;;;30.2;35.83789;1003.271;;;;
2019/06/21 01:17:50;;;;;;;1.5;0.9;;;;;;;30.18;35.83789;1003.243;;;;
2019/06/21 01:20:15;;;;;;;1.5;0.9;;;;;;;30.18;35.84961;1003.244;;;;
2019/06/21 01:22:40;;;;;;;1.6;1.1;;;;;;;30.17;35.87402;1003.242;;;;
2019/06/21 01:25:06;;;;;;;1.2;0.9;;;;;;;30.16;35.89648;1003.239;;;;
2019/06/21 01:28:25;;;;;;;1.7;1;;;;;;;30.19;35.8623;1003.268;;;;
2019/06/21 01:30:51;;;;;;;1.6;1;;;;;;;30.17;35.86035;1003.231;;;;
2019/06/21 01:33:16;;;;;;;1.2;1;;;;;;;30.17;35.93359;1003.233;;;;
2019/06/21 01:35:42;;;;;;;2.5;1.1;;;;;;;30.15;35.94531;1003.252;;;;
2019/06/21 01:38:07;;;;;;;1.9;1.1;;;;;;;30.14;35.98047;1003.316;;;;
2019/06/21 01:38:46;;;;;;;1.2;1;;;;;;;30.14;35.96875;1003.312;;;;
2019/06/21 01:41:11;;;;;;;1.5;1;;;;;;;30.12;36.0166;1003.369;;;;
2019/06/21 01:43:36;;;;;;;1.5;1;;;;;;;30.12;36.02832;1003.404;;;;
2019/06/21 01:43:53;;;;;;;1.5;1.1;;;;;;;30.13;36.04102;1003.382;;;;
2019/06/21 01:46:18;;;;;;;2;1;;;;;;;30.15;35.98145;1003.377;;;;
2019/06/21 01:48:43;;;;;;;1.5;0.9;;;;;;;30.14;36.00488;1003.349;;;;
2019/06/21 01:51:09;;;;;;;1.9;1.1;;;;;;;30.14;36.01758;1003.34;;;;
2019/06/21 01:53:35;;;;;;;3;0.9;;;;;;;30.11;36.07617;1003.379;;;;
2019/06/21 01:56:00;;;;;;;1.7;0.9;;;;;;;30.11;36.08887;1003.442;;;;
2019/06/21 01:58:25;;;;;;;1.5;1.1;;;;;;;30.1;36.125;1003.458;;;;
2019/06/21 02:00:50;;;;;;;1.9;1;;;;;;;30.1;36.14941;1003.437;;;;
2019/06/21 02:03:16;;;;;;;1.6;1.2;;;;;;;30.09;36.14844;1003.392;;;;
2019/06/21 02:05:41;;;;;;;1.4;1.1;;;;;;;30.09;36.18555;1003.427;;;;
2019/06/21 02:08:06;;;;;;;3.7;1.1;;;;;;;30.08;36.19629;1003.401;;;;
2019/06/21 02:10:32;;;;;;;1.1;1;;;;;;;30.08;36.19629;1003.404;;;;
2019/06/21 02:12:57;;;;;;;2;1.1;;;;;;;30.08;36.20898;1003.411;;;;
2019/06/21 02:15:23;;;;;;;1.8;1.1;;;;;;;30.07;36.23242;1003.393;;;;
2019/06/21 02:17:48;;;;;;;1.6;0.9;;;;;;;30.07;36.25684;1003.358;;;;
2019/06/21 02:20:13;;;;;;;2.2;0.9;;;;;;;30.07;36.25684;1003.383;;;;
2019/06/21 02:22:39;;;;;;;2.1;1.1;;;;;;;30.06;36.28027;1003.386;;;;
2019/06/21 02:25:58;;;;;;;2;1.1;;;;;;;30.07;36.26953;1003.388;;;;
2019/06/21 02:26:44;;;;;;;1.2;1.1;;;;;;;30.09;36.23438;1003.372;;;;
2019/06/21 02:29:09;;;;;;;1.9;1;;;;;;;30.13;36.13867;1003.416;;;;
2019/06/21 02:32:28;;;;;;;2.2;1.1;;;;;;;30.18;36.08301;1003.421;;;;
2019/06/21 02:34:53;;;;;;;1.6;1;;;;;;;30.18;36.06934;1003.431;;;;
2019/06/21 02:37:18;;;;;;;1;0.9;;;;;;;30.16;36.11719;1003.419;;;;
2019/06/21 02:39:43;;;;;;;2.2;1;;;;;;;30.14;36.13965;1003.377;;;;
2019/06/21 02:43:02;;;;;;;2.1;1.1;;;;;;;30.12;36.2002;1003.344;;;;
2019/06/21 02:45:27;;;;;;;1.2;1.1;;;;;;;30.12;36.1875;1003.391;;;;
2019/06/21 02:47:54;;;;;;;1.8;1;;;;;;;30.11;36.22363;1003.398;;;;
2019/06/21 02:50:29;;;;;;;1.5;1;;;;;;;30.1;36.28418;1003.378;;;;
2019/06/21 02:52:49;;;;;;;1.4;1;;;;;;;30.09;36.27148;1003.371;;;;
2019/06/21 02:55:14;;;;;;;1.5;1.1;;;;;;;30.09;36.28418;1003.362;;;;
2019/06/21 02:58:33;;;;;;;1.2;1.1;;;;;;;30.1;36.27148;1003.436;;;;
2019/06/21 03:00:58;;;;;;;1.2;1.1;;;;;;;30.1;36.28418;1003.471;;;;
2019/06/21 03:03:23;;;;;;;1.8;1.1;;;;;;;30.09;36.32031;1003.544;;;;
2019/06/21 03:05:48;;;;;;;1.3;1.1;;;;;;;30.08;36.31836;1003.534;;;;
2019/06/21 03:08:14;;;;;;;2.5;1.2;;;;;;;30.07;36.35547;1003.53;;;;
2019/06/21 03:10:39;;;;;;;2.9;1.5;;;;;;;30.05;36.39063;1003.545;;;;
2019/06/21 03:13:04;;;;;;;2.6;1.1;;;;;;;30.04;36.40234;1003.555;;;;
2019/06/21 03:15:30;;;;;;;2;1.1;;;;;;;30.04;36.43848;1003.581;;;;
2019/06/21 03:17:55;;;;;;;2.2;0.9;;;;;;;30.04;36.4502;1003.604;;;;
2019/06/21 03:20:20;;;;;;;2.2;1;;;;;;;30.03;36.46289;1003.611;;;;
2019/06/21 03:22:46;;;;;;;2.5;1.2;;;;;;;30.03;36.4248;1003.648;;;;
2019/06/21 03:25:11;;;;;;;1.8;1;;;;;;;30.03;36.43848;1003.65;;;;
2019/06/21 03:28:30;;;;;;;1.2;1.1;;;;;;;30.06;36.36719;1003.677;;;;
2019/06/21 03:31:48;;;;;;;2.1;1.1;;;;;;;30.1;36.32031;1003.721;;;;
2019/06/21 03:34:14;;;;;;;2.6;1.1;;;;;;;30.09;36.32031;1003.696;;;;
2019/06/21 03:36:39;;;;;;;1.8;1.2;;;;;;;30.08;36.35547;1003.714;;;;
2019/06/21 03:39:06;;;;;;;1.7;1.2;;;;;;;30.07;36.35547;1003.742;;;;
2019/06/21 03:41:31;;;;;;;1.2;1.1;;;;;;;30.05;36.36523;1003.718;;;;
2019/06/21 03:43:57;;;;;;;2.6;1.1;;;;;;;30.05;36.37793;1003.726;;;;
2019/06/21 03:46:23;;;;;;;1.4;1.2;;;;;;;30.04;36.38965;1003.738;;;;
2019/06/21 03:48:49;;;;;;;1.7;1;;;;;;;30.04;36.41406;1003.723;;;;
2019/06/21 03:51:14;;;;;;;1.5;1.1;;;;;;;30.03;36.40039;1003.742;;;;
2019/06/21 03:54:33;;;;;;;1.2;1;;;;;;;30.04;36.36523;1003.71;;;;
2019/06/21 03:56:58;;;;;;;1.6;1.1;;;;;;;30.04;36.37695;1003.721;;;;
2019/06/21 03:59:23;;;;;;;2.8;1.2;;;;;;;30.03;36.40039;1003.738;;;;
2019/06/21 04:01:48;;;;;;;1.5;1;;;;;;;30.02;36.40039;1003.769;;;;
2019/06/21 04:01:59;;;;;;;1.6;1;;;;;;;30.03;36.40039;1003.762;;;;
2019/06/21 04:04:24;;;;;;;2.6;1.1;;;;;;;30.05;36.34082;1003.742;;;;
2019/06/21 04:06:49;;;;;;;2.4;1.2;;;;;;;30.04;36.35254;1003.75;;;;
2019/06/21 04:09:15;;;;;;;1.8;1.2;;;;;;;30.02;36.375;1003.707;;;;
2019/06/21 04:11:42;;;;;;;1.2;1.1;;;;;;;30.01;36.375;1003.708;;;;
2019/06/21 04:15:01;;;;;;;2.4;1.1;;;;;;;30.03;36.31543;1003.687;;;;
2019/06/21 04:17:27;;;;;;;1.5;1;;;;;;;30.03;36.33887;1003.701;;;;
2019/06/21 04:18:01;;;;;;;2.1;1.2;;;;;;;30.03;36.35254;1003.717;;;;
2019/06/21 04:20:26;;;;;;;1.2;1;;;;;;;30.05;36.26758;1003.659;;;;
2019/06/21 04:22:51;;;;;;;2.6;1.4;;;;;;;30.04;36.29102;1003.636;;;;
2019/06/21 04:25:16;;;;;;;3.1;1.1;;;;;;;30.03;36.31445;1003.665;;;;
2019/06/21 04:27:42;;;;;;;2.2;1.2;;;;;;;30.01;36.33789;1003.604;;;;
2019/06/21 04:30:07;;;;;;;1.3;1.1;;;;;;;30.01;36.34961;1003.61;;;;
2019/06/21 04:32:33;;;;;;;2.8;1.2;;;;;;;30;36.3623;1003.655;;;;
2019/06/21 04:34:58;;;;;;;2.5;1.2;;;;;;;30.01;36.35059;1003.676;;;;
2019/06/21 04:37:23;;;;;;;2.5;1.2;;;;;;;30.02;36.32617;1003.667;;;;
2019/06/21 04:39:49;;;;;;;1.3;1;;;;;;;30.03;36.31543;1003.67;;;;
2019/06/21 04:43:08;;;;;;;1.7;1.2;;;;;;;30.06;36.24316;1003.722;;;;
2019/06/21 04:45:33;;;;;;;3.6;1.3;;;;;;;30.06;36.24414;1003.728;;;;
2019/06/21 04:47:59;;;;;;;1.5;1.1;;;;;;;30.05;36.24316;1003.727;;;;
2019/06/21 04:50:24;;;;;;;2.7;1.4;;;;;;;30.04;36.2666;1003.69;;;;
2019/06/21 04:53:08;;;;;;;1.2;1;;;;;;;30.04;36.25488;1003.698;;;;
2019/06/21 04:55:33;;;;;;;1.6;1.1;;;;;;;30.02;36.29004;1003.688;;;;
2019/06/21 04:57:59;;;;;;;2.7;1.3;;;;;;;30.04;36.24316;1003.706;;;;
2019/06/21 05:00:24;;;;;;;1.8;1;;;;;;;30.06;36.23145;1003.703;;;;
2019/06/21 05:03:05;;;;;;;1.5;1.1;;;;;;;30.08;36.16016;1003.756;;;;
2019/06/21 05:05:31;;;;;;;2.1;1.2;;;;;;;30.1;36.14941;1003.776;;;;
2019/06/21 05:07:56;;;;;;;1.6;1.3;;;;;;;30.12;36.10254;1003.82;;;;
2019/06/21 05:10:27;;;;;;;1.6;1.2;;;;;;;30.15;36.05566;1003.899;;;;
2019/06/21 05:12:52;;;;;;;1.8;1.1;;;;;;;30.18;36.00879;1003.945;;;;
2019/06/21 05:16:44;;;;;;;2.5;1;;;;;;;30.26;35.86719;1003.965;;;;
2019/06/21 05:19:09;;;;;;;2.7;1.4;;;;;;;30.28;35.83301;1003.997;;;;
2019/06/21 05:21:34;;;;;;;1.8;1.2;;;;;;;30.3;35.80957;1004.014;;;;
2019/06/21 05:23:59;;;;;;;2;1.3;;;;;;;30.31;35.78613;1003.98;;;;
2019/06/21 05:26:24;;;;;;;2.7;1.2;;;;;;;30.33;35.79883;1004.001;;;;
2019/06/21 05:28:50;;;;;;;2.5;1.2;;;;;;;30.34;35.875;1003.997;;;;
2019/06/21 05:31:15;;;;;;;1.6;1.4;;;;;;;30.35;35.78906;1004.009;;;;
2019/06/21 05:32:00;;;;;;;1.9;1.2;;;;;;;30.36;35.77832;1004.013;;;;
2019/06/21 05:34:25;;;;;;;1.9;1.1;;;;;;;30.38;35.76758;1004.021;;;;
2019/06/21 05:37:44;;;;;;;2.5;1.5;;;;;;;30.47;35.72461;1004.093;;;;
2019/06/21 05:40:10;;;;;;;2.9;1.4;;;;;;;30.48;35.77539;1004.13;;;;
2019/06/21 05:42:35;;;;;;;3.6;1.5;;;;;;;30.49;35.78809;1004.137;;;;
2019/06/21 05:45:00;;;;;;;3.1;1.5;;;;;;;30.49;35.7998;1004.14;;;;
2019/06/21 05:48:19;;;;;;;2;1.3;;;;;;;30.51;35.77734;1004.131;;;;
2019/06/21 05:50:45;;;;;;;3.3;1.5;;;;;;;30.52;35.72852;1004.141;;;;
2019/06/21 05:53:10;;;;;;;3.1;1.3;;;;;;;30.52;35.72949;1004.191;;;;
2019/06/21 05:55:36;;;;;;;2.5;1.3;;;;;;;30.52;35.72852;1004.188;;;;
2019/06/21 05:58:55;;;;;;;3;1.4;;;;;;;30.57;35.61035;1004.201;;;;
2019/06/21 06:01:20;;;;;;;2.6;1.2;;;;;;;30.57;35.56152;1004.216;;;;
2019/06/21 06:03:45;;;;;;;1.9;1.3;;;;;;;30.58;35.5498;1004.264;;;;
2019/06/21 06:06:11;;;;;;;1.7;1.2;;;;;;;30.59;35.53809;1004.282;;;;
2019/06/21 06:08:36;;;;;;;2.3;1.2;;;;;;;30.59;35.52637;1004.307;;;;
2019/06/21 06:11:01;;;;;;;2.9;1.3;;;;;;;30.6;35.50293;1004.309;;;;
2019/06/21 06:13:39;;;;;;;3.2;1.2;;;;;;;30.59;35.51465;1004.323;;;;
2019/06/21 06:14:21;;;;;;;2.2;1.3;;;;;;;30.59;35.51465;1004.343;;;;
2019/06/21 06:16:55;;;;;;;2.2;1.2;;;;;;;30.61;35.47852;1004.315;;;;
2019/06/21 06:19:20;;;;;;;3.5;1.1;;;;;;;30.61;35.49121;1004.319;;;;
2019/06/21 06:21:55;;;;;;;3.3;1.4;;;;;;;30.62;35.45508;1004.329;;;;
2019/06/21 06:24:20;;;;;;;2;1.2;;;;;;;30.62;35.44336;1004.343;;;;
2019/06/21 06:27:07;;;;;;;1.8;1.2;;;;;;;30.62;35.4668;1004.355;;;;
2019/06/21 06:29:32;;;;;;;2.9;1.4;;;;;;;30.63;35.46777;1004.349;;;;
2019/06/21 06:31:57;;;;;;;2.9;1.6;;;;;;;30.64;35.41992;1004.37;;;;
2019/06/21 06:34:22;;;;;;;2.9;1.4;;;;;;;30.64;35.48145;1004.339;;;;
2019/06/21 06:36:47;;;;;;;2.5;1.3;;;;;;;30.64;35.48047;1004.354;;;;
2019/06/21 06:36:53;;;;;;;2.7;1.5;;;;;;;30.64;35.46875;1004.347;;;;
2019/06/21 06:39:18;;;;;;;2.6;1.5;;;;;;;30.68;35.44727;1004.365;;;;
2019/06/21 06:41:43;;;;;;;4.2;1.4;;;;;;;30.7;35.375;1004.362;;;;
2019/06/21 06:44:09;;;;;;;3.2;1.3;;;;;;;30.7;35.41309;1004.392;;;;
2019/06/21 06:44:30;;;;;;;2.3;1.2;;;;;;;30.71;35.41309;1004.401;;;;
2019/06/21 06:46:55;;;;;;;2.8;1.3;;;;;;;30.72;35.40137;1004.407;;;;
2019/06/21 06:49:21;;;;;;;2.5;1.4;;;;;;;30.71;35.4873;1004.409;;;;
2019/06/21 06:51:46;;;;;;;5.5;1.4;;;;;;;30.72;35.49902;1004.405;;;;
2019/06/21 06:54:11;;;;;;;3.2;1.4;;;;;;;30.72;35.54785;1004.422;;;;
2019/06/21 06:57:31;;;;;;;2.2;1.4;;;;;;;30.74;35.50098;1004.453;;;;
2019/06/21 06:59:56;;;;;;;4.4;1.5;;;;;;;30.73;35.50098;1004.436;;;;
2019/06/21 07:02:21;;;;;;;2.4;1.3;;;;;;;30.75;35.46484;1004.515;;;;
2019/06/21 07:04:47;;;;;;;5;1.6;;;;;;;30.74;35.46484;1004.534;;;;
2019/06/21 07:07:12;;;;;;;4.7;1.5;;;;;;;30.74;35.48828;1004.553;;;;
2019/06/21 07:09:37;;;;;;;3.2;1.5;;;;;;;30.72;35.54785;1004.547;;;;
2019/06/21 07:09:44;;;;;;;2.8;1.4;;;;;;;30.72;35.53711;1004.555;;;;
2019/06/21 07:12:09;;;;;;;4.1;1.8;;;;;;;30.77;35.50293;1004.528;;;;
2019/06/21 07:15:28;;;;;;;4.6;1.7;;;;;;;30.79;35.59082;1004.502;;;;
2019/06/21 07:17:54;;;;;;;2.6;1.4;;;;;;;30.8;35.66602;1004.528;;;;
2019/06/21 07:20:19;;;;;;;4.9;1.6;;;;;;;30.78;35.70117;1004.53;;;;
2019/06/21 07:22:44;;;;;;;2.7;1.4;;;;;;;30.78;35.84863;1004.553;;;;
2019/06/21 07:25:09;;;;;;;4.1;1.5;;;;;;;30.77;35.6748;1004.468;;;;
2019/06/21 07:27:34;;;;;;;2.4;1.4;;;;;;;30.77;35.75977;1004.517;;;;
2019/06/21 07:30:53;;;;;;;1.9;1.5;;;;;;;30.77;35.69922;1004.531;;;;
2019/06/21 07:33:24;;;;;;;4.8;1.6;;;;;;;30.77;35.74902;1004.51;;;;
2019/06/21 07:35:44;;;;;;;5.1;1.8;;;;;;;30.74;35.62402;1004.531;;;;
2019/06/21 07:38:09;;;;;;;3.6;1.4;;;;;;;30.74;35.79492;1004.614;;;;
2019/06/21 07:40:34;;;;;;;3.8;1.6;;;;;;;30.73;35.62305;1004.606;;;;
2019/06/21 07:43:00;;;;;;;2.7;1.5;;;;;;;30.73;35.57422;1004.582;;;;
2019/06/21 07:45:26;;;;;;;4.1;1.7;;;;;;;30.73;35.52539;1004.583;;;;
2019/06/21 07:47:51;;;;;;;4.8;1.6;;;;;;;30.7;35.49805;1004.591;;;;
2019/06/21 07:50:17;;;;;;;3.1;1.5;;;;;;;30.7;35.44824;1004.606;;;;
2019/06/21 07:52:42;;;;;;;3.9;1.7;;;;;;;30.69;35.30176;1004.61;;;;
2019/06/21 07:56:01;;;;;;;3.9;1.6;;;;;;;30.77;35.18359;1004.592;;;;
2019/06/21 07:59:21;;;;;;;2.6;1.5;;;;;;;30.79;34.97754;1004.621;;;;
2019/06/21 08:01:46;;;;;;;2.3;1.5;;;;;;;30.8;34.90527;1004.641;;;;
2019/06/21 08:04:11;;;;;;;1.7;1.2;;;;;;;30.79;34.95215;1004.665;;;;
2019/06/21 08:06:36;;;;;;;3.8;1.7;;;;;;;30.77;34.96387;1004.713;;;;
2019/06/21 08:09:02;;;;;;;2.4;1.4;;;;;;;30.77;35.06152;1004.7;;;;
2019/06/21 08:11:27;;;;;;;2.8;1.5;;;;;;;30.76;35.07324;1004.739;;;;
2019/06/21 08:13:52;;;;;;;3.8;1.9;;;;;;;30.74;35.14551;1004.735;;;;
2019/06/21 08:16:17;;;;;;;2.7;1.5;;;;;;;30.73;35.18164;1004.75;;;;
2019/06/21 08:18:44;;;;;;;2.4;1.6;;;;;;;30.72;35.31543;1004.738;;;;
2019/06/21 08:21:09;;;;;;;3.7;1.7;;;;;;;30.74;35.37793;1004.782;;;;
2019/06/21 08:23:35;;;;;;;3.6;1.9;;;;;;;30.77;35.31836;1004.786;;;;
2019/06/21 08:26:55;;;;;;;3.3;1.7;;;;;;;30.84;35.21484;1004.8;;;;
2019/06/21 08:29:20;;;;;;;3.4;1.6;;;;;;;30.87;35.2168;1004.804;;;;
2019/06/21 08:31:45;;;;;;;3.6;1.7;;;;;;;30.87;35.24121;1004.835;;;;
2019/06/21 08:34:11;;;;;;;3.2;1.7;;;;;;;30.87;35.27832;1004.838;;;;
2019/06/21 08:36:36;;;;;;;4.8;1.8;;;;;;;30.87;35.31543;1004.872;;;;
2019/06/21 08:39:01;;;;;;;4.4;1.8;;;;;;;30.88;35.35254;1004.877;;;;
2019/06/21 08:41:26;;;;;;;4;1.7;;;;;;;30.88;35.2666;1004.864;;;;
2019/06/21 08:43:51;;;;;;;4.5;1.8;;;;;;;30.88;35.16797;1004.911;;;;
2019/06/21 08:47:10;;;;;;;3.9;1.6;;;;;;;30.91;35.03613;1004.916;;;;
2019/06/21 08:50:29;;;;;;;4.6;2;;;;;;;30.92;34.92578;1004.93;;;;
2019/06/21 08:52:55;;;;;;;2.5;1.8;;;;;;;30.9;34.91211;1004.914;;;;
2019/06/21 08:55:20;;;;;;;4.5;1.9;;;;;;;30.89;34.90039;1004.931;;;;
2019/06/21 08:57:46;;;;;;;3.2;1.9;;;;;;;30.87;34.92285;1004.927;;;;
2019/06/21 09:00:11;;;;;;;4.8;1.9;;;;;;;30.86;34.90918;1004.952;;;;
2019/06/21 09:03:30;;;;;;;2.9;2;;;;;;;30.88;35.08203;1004.946;;;;
2019/06/21 09:05:56;;;;;;;4.1;1.9;;;;;;;30.89;35.04688;1004.963;;;;
2019/06/21 09:08:21;;;;;;;3.5;2;;;;;;;30.89;35.28027;1004.976;;;;
2019/06/21 09:10:46;;;;;;;3.6;2;;;;;;;30.91;35.02344;1004.936;;;;
2019/06/21 09:13:14;;;;;;;4.2;1.9;;;;;;;30.91;34.99902;1004.879;;;;
2019/06/21 09:15:39;;;;;;;2.8;1.9;;;;;;;30.89;34.83887;1004.816;;;;
2019/06/21 09:18:04;;;;;;;4.2;1.9;;;;;;;30.87;34.67676;1004.825;;;;
2019/06/21 09:20:29;;;;;;;2.8;1.9;;;;;;;30.85;34.58887;1004.792;;;;
2019/06/21 09:22:55;;;;;;;2.3;1.7;;;;;;;30.82;34.46484;1004.756;;;;
2019/06/21 09:25:20;;;;;;;6.6;2.1;;;;;;;30.83;34.6123;1004.728;;;;
2019/06/21 09:27:45;;;;;;;6;2.1;;;;;;;30.82;34.31738;1004.697;;;;
2019/06/21 09:30:11;;;;;;;2.8;1.8;;;;;;;30.82;34.53809;1004.702;;;;
2019/06/21 09:32:41;;;;;;;3.6;2;;;;;;;30.82;34.23145;1004.705;;;;
2019/06/21 09:36:00;;;;;;;4.1;2;;;;;;;30.89;34.24902;1004.68;;;;
2019/06/21 09:38:28;;;;;;;7.1;1.7;;;;;;;30.88;34.18652;1004.712;;;;
2019/06/21 09:41:08;;;;;;;3.4;1.7;;;;;;;30.87;34.08789;1004.687;;;;
2019/06/21 09:43:34;;;;;;;4.7;2;;;;;;;30.86;33.92773;1004.686;;;;
2019/06/21 09:46:00;;;;;;;2.3;1.8;;;;;;;30.86;33.8916;1004.707;;;;
2019/06/21 09:48:25;;;;;;;3.7;1.8;;;;;;;30.84;33.5459;1004.772;;;;
2019/06/21 09:50:51;;;;;;;2.9;1.6;;;;;;;30.82;35.79004;1004.761;;;;
2019/06/21 09:53:16;;;;;;;2.3;1.7;;;;;;;30.81;33.67871;1004.715;;;;
2019/06/21 09:55:41;;;;;;;6.4;2.2;;;;;;;30.79;33.72656;1004.733;;;;
2019/06/21 09:58:06;;;;;;;2.3;1.7;;;;;;;30.8;33.82422;1004.758;;;;
2019/06/21 10:00:31;;;;;;;6.4;1.9;;;;;;;30.78;34.06934;1004.788;;;;
2019/06/21 10:02:56;;;;;;;3.3;2;;;;;;;30.77;33.93262;1004.766;;;;
2019/06/21 10:05:22;;;;;;;3.1;1.8;;;;;;;30.76;33.88281;1004.775;;;;
2019/06/21 10:07:47;;;;;;;3.7;1.8;;;;;;;30.73;33.58691;1004.736;;;;
2019/06/21 10:08:10;;;;;;;3.2;1.9;;;;;;;30.73;33.58691;1004.754;;;;
2019/06/21 10:10:35;;;;;;;5.3;2;;;;;;;30.72;33.74609;1004.721;;;;
2019/06/21 10:13:00;;;;;;;3.4;1.7;;;;;;;30.7;33.4502;1004.691;;;;
2019/06/21 10:15:25;;;;;;;3.3;1.7;;;;;;;30.72;33.75684;1004.693;;;;
2019/06/21 10:17:51;;;;;;;2.6;1.6;;;;;;;30.74;33.48926;1004.663;;;;
2019/06/21 10:20:16;;;;;;;4.5;1.6;;;;;;;30.75;33.71191;1004.597;;;;
2019/06/21 10:20:48;;;;;;;3.4;1.8;;;;;;;30.75;33.56445;1004.604;;;;
2019/06/21 10:23:14;;;;;;;4.7;1.8;;;;;;;30.8;33.69043;1004.609;;;;
2019/06/21 10:25:39;;;;;;;3.3;1.8;;;;;;;30.81;33.49414;1004.627;;;;
2019/06/21 10:28:04;;;;;;;5.4;2.1;;;;;;;30.8;33.33398;1004.587;;;;
2019/06/21 10:30:29;;;;;;;5.8;1.8;;;;;;;30.78;33.17383;1004.568;;;;
2019/06/21 10:32:54;;;;;;;4.8;1.8;;;;;;;30.75;32.93848;1004.566;;;;
2019/06/21 10:35:20;;;;;;;4.5;1.6;;;;;;;30.73;32.74023;1004.596;;;;
2019/06/21 10:37:45;;;;;;;2.3;1.8;;;;;;;30.71;32.8125;1004.595;;;;
2019/06/21 10:40:10;;;;;;;5.2;2;;;;;;;30.71;32.65234;1004.544;;;;
2019/06/21 10:41:00;;;;;;;3.8;1.7;;;;;;;30.71;32.62793;1004.575;;;;
2019/06/21 10:43:25;;;;;;;4.8;1.9;;;;;;;30.72;32.6543;1004.578;;;;
2019/06/21 10:45:50;;;;;;;4.9;1.8;;;;;;;30.73;32.40918;1004.559;;;;
2019/06/21 10:48:15;;;;;;;3.5;1.6;;;;;;;30.72;32.16309;1004.541;;;;
2019/06/21 10:50:41;;;;;;;2.9;1.6;;;;;;;30.7;32.23535;1004.514;;;;
2019/06/21 10:53:06;;;;;;;3.7;1.9;;;;;;;30.68;32.34375;1004.506;;;;
2019/06/21 10:55:31;;;;;;;4.6;1.6;;;;;;;30.66;32.29395;1004.504;;;;
2019/06/21 10:57:57;;;;;;;3.8;1.7;;;;;;;30.66;32.6377;1004.561;;;;
2019/06/21 11:00:21;;;;;;;5.9;1.6;;;;;;;30.64;32.43945;1004.552;;;;
2019/06/21 11:02:47;;;;;;;2.7;1.5;;;;;;;30.64;32.43945;1004.529;;;;
2019/06/21 11:06:06;;;;;;;4.7;1.7;;;;;;;30.65;32.36621;1004.552;;;;
2019/06/21 11:08:31;;;;;;;4.7;1.8;;;;;;;30.64;32.41504;1004.522;;;;
2019/06/21 11:11:50;;;;;;;2.9;1.5;;;;;;;30.65;32.3916;1004.543;;;;
2019/06/21 11:14:16;;;;;;;3.6;1.5;;;;;;;30.65;32.48926;1004.514;;;;
2019/06/21 11:18:28;;;;;;;3.2;1.7;;;;;;;30.61;32.28906;1004.41;;;;
2019/06/21 11:20:53;;;;;;;2.5;1.5;;;;;;;30.58;32.28809;1004.394;;;;
2019/06/21 11:23:19;;;;;;;4.4;2;;;;;;;30.56;32.23828;1004.407;;;;
2019/06/21 11:25:44;;;;;;;2.8;1.4;;;;;;;30.54;32.19922;1004.383;;;;
2019/06/21 11:28:09;;;;;;;2.8;1.6;;;;;;;30.52;32.13672;1004.4;;;;
2019/06/21 11:30:34;;;;;;;4.4;2.1;;;;;;;30.52;32.1123;1004.39;;;;
2019/06/21 11:33:00;;;;;;;4.4;1.8;;;;;;;30.51;32.14844;1004.433;;;;
2019/06/21 11:35:25;;;;;;;3.3;1.7;;;;;;;30.51;32.08594;1004.387;;;;
2019/06/21 11:37:50;;;;;;;1.9;1.4;;;;;;;30.51;32.13574;1004.375;;;;
2019/06/21 11:38:17;;;;;;;1.8;1.3;;;;;;;30.52;32.16016;1004.401;;;;
2019/06/21 11:40:42;;;;;;;2.1;1.4;;;;;;;30.56;32.09082;1004.399;;;;
2019/06/21 11:43:08;;;;;;;4.9;1.6;;;;;;;30.57;31.98047;1004.328;;;;
2019/06/21 11:45:33;;;;;;;3.3;1.4;;;;;;;30.57;32.09082;1004.32;;;;
2019/06/21 11:47:58;;;;;;;3.5;1.6;;;;;;;30.56;31.95508;1004.35;;;;
2019/06/21 11:51:17;;;;;;;2.6;1.4;;;;;;;30.57;31.74707;1004.373;;;;
2019/06/21 11:53:43;;;;;;;3.6;1.5;;;;;;;30.56;31.77148;1004.335;;;;
2019/06/21 11:56:08;;;;;;;3.2;1.4;;;;;;;30.55;31.59863;1004.334;;;;
2019/06/21 11:58:34;;;;;;;2.1;1.4;;;;;;;30.5;31.68066;1004.316;;;;
2019/06/21 12:00:59;;;;;;;3.8;1.4;;;;;;;30.47;31.56934;1004.259;;;;
2019/06/21 12:03:24;;;;;;;3.1;1.4;;;;;;;30.49;31.68066;1004.298;;;;
2019/06/21 12:03:35;;;;;;;3.4;1.4;;;;;;;30.48;31.66797;1004.29;;;;
2019/06/21 12:06:00;;;;;;;3.5;1.6;;;;;;;30.51;31.64551;1004.267;;;;
2019/06/21 12:08:26;;;;;;;4;1.6;;;;;;;30.51;31.55957;1004.248;;;;
2019/06/21 12:12:38;;;;;;;2.9;1.4;;;;;;;30.56;31.44043;1004.258;;;;
2019/06/21 12:15:04;;;;;;;2.2;1.4;;;;;;;30.54;32.68945;1004.269;;;;
2019/06/21 12:17:29;;;;;;;2.9;1.5;;;;;;;30.57;31.58789;1004.271;;;;
2019/06/21 12:19:54;;;;;;;4.4;1.5;;;;;;;30.58;31.71191;1004.289;;;;
2019/06/21 12:22:19;;;;;;;3;1.5;;;;;;;30.58;31.61328;1004.244;;;;
2019/06/21 12:24:45;;;;;;;4.5;1.5;;;;;;;30.57;31.91895;1004.24;;;;
2019/06/21 12:27:10;;;;;;;3.2;1.5;;;;;;;30.57;31.71094;1004.203;;;;
2019/06/21 12:29:35;;;;;;;2.3;1.3;;;;;;;30.57;31.77148;1004.277;;;;
2019/06/21 12:32:01;;;;;;;2.8;1.3;;;;;;;30.56;31.72266;1004.253;;;;
2019/06/21 12:34:26;;;;;;;2.5;1.4;;;;;;;30.56;31.37891;1004.286;;;;
2019/06/21 12:36:51;;;;;;;3.6;1.6;;;;;;;30.55;31.61133;1004.275;;;;
2019/06/21 12:40:12;;;;;;;3.2;1.5;;;;;;;30.73;31.44043;1004.239;;;;
2019/06/21 12:42:37;;;;;;;2.8;1.3;;;;;;;30.83;31.0293;1004.15;;;;
2019/06/21 12:45:02;;;;;;;4.6;1.5;;;;;;;30.84;30.74805;1004.168;;;;
2019/06/21 12:47:27;;;;;;;3.4;1.4;;;;;;;30.84;30.58887;1004.163;;;;
2019/06/21 12:49:53;;;;;;;3.6;1.3;;;;;;;30.82;30.77148;1004.158;;;;
2019/06/21 12:52:18;;;;;;;1.9;1.2;;;;;;;30.79;30.69531;1004.155;;;;
2019/06/21 12:54:43;;;;;;;3.1;1.6;;;;;;;30.75;30.69336;1004.142;;;;
2019/06/21 12:57:08;;;;;;;2.3;1.3;;;;;;;30.73;30.85156;1004.164;;;;
2019/06/21 12:59:41;;;;;;;4.2;1.6;;;;;;;30.68;30.58984;1004.133;;;;
2019/06/21 13:02:11;;;;;;;3.4;1.3;;;;;;;30.64;30.78418;1004.179;;;;
2019/06/21 13:04:48;;;;;;;2.3;1.1;;;;;;;30.64;30.59961;1004.196;;;;
2019/06/21 13:08:07;;;;;;;2.6;1.5;;;;;;;30.72;30.35938;1004.12;;;;
2019/06/21 13:10:32;;;;;;;2.9;1.4;;;;;;;30.71;30.4082;1004.134;;;;
2019/06/21 13:12:58;;;;;;;2.7;1.2;;;;;;;30.69;30.41895;1004.109;;;;
2019/06/21 13:15:23;;;;;;;4.2;1.5;;;;;;;30.66;30.40527;1004.112;;;;
2019/06/21 13:17:48;;;;;;;2.4;1.4;;;;;;;30.65;30.4043;1004.13;;;;
2019/06/21 13:20:13;;;;;;;3;1.4;;;;;;;30.63;30.58691;1004.128;;;;
2019/06/21 13:22:39;;;;;;;3.7;1.4;;;;;;;30.63;30.50098;1004.085;;;;
2019/06/21 13:25:04;;;;;;;1.8;1.1;;;;;;;30.63;30.81934;1004.042;;;;
2019/06/21 13:27:29;;;;;;;4.9;1.5;;;;;;;30.63;30.72168;1003.984;;;;
2019/06/21 13:29:54;;;;;;;3;1.3;;;;;;;30.61;30.70801;1003.988;;;;
2019/06/21 13:32:20;;;;;;;5.4;1.3;;;;;;;30.59;30.74316;1003.951;;;;
2019/06/21 13:34:45;;;;;;;3.2;1.6;;;;;;;30.61;30.69531;1003.878;;;;
2019/06/21 13:37:11;;;;;;;2.4;1.3;;;;;;;30.6;30.63379;1003.867;;;;
2019/06/21 13:39:36;;;;;;;2.7;1.5;;;;;;;30.61;30.54785;1003.802;;;;
2019/06/21 13:42:01;;;;;;;2.7;1.3;;;;;;;30.61;30.74512;1003.775;;;;
2019/06/21 13:44:26;;;;;;;2.2;1.2;;;;;;;30.61;30.65918;1003.733;;;;
2019/06/21 13:46:52;;;;;;;3.4;1.3;;;;;;;30.61;30.43848;1003.777;;;;
2019/06/21 13:49:17;;;;;;;4.5;1.5;;;;;;;30.6;30.49902;1003.789;;;;
2019/06/21 13:51:42;;;;;;;1.6;1.1;;;;;;;30.61;30.58496;1003.749;;;;
2019/06/21 13:54:07;;;;;;;2;1.1;;;;;;;30.61;30.5;1003.756;;;;
2019/06/21 13:56:32;;;;;;;3.3;1.2;;;;;;;30.58;30.35059;1003.743;;;;
2019/06/21 13:58:57;;;;;;;2.4;1.4;;;;;;;30.58;30.3623;1003.733;;;;
2019/06/21 14:01:23;;;;;;;2.7;1.4;;;;;;;30.58;30.28906;1003.753;;;;
2019/06/21 14:03:48;;;;;;;3.2;1.2;;;;;;;30.56;30.33691;1003.774;;;;
2019/06/21 14:06:14;;;;;;;2;1.4;;;;;;;30.56;30.3125;1003.724;;;;
2019/06/21 14:08:39;;;;;;;3.9;1.3;;;;;;;30.57;30.25098;1003.717;;;;
2019/06/21 14:11:04;;;;;;;2.5;1.3;;;;;;;30.57;30.25098;1003.725;;;;